createdAt,value
2022-12-03T00:01:45.636Z,6.18
2022-12-03T00:06:52.900Z,6.32
2022-12-03T00:12:00.401Z,7.15
2022-12-03T00:14:38.864Z,6.80
2022-12-03T00:17:17.055Z,6.60
2022-12-03T00:19:50.883Z,6.57
2022-12-03T00:22:24.696Z,6.75
2022-12-03T00:27:31.995Z,6.80
2022-12-03T00:30:09.445Z,5.85
2022-12-03T00:32:43.255Z,6.35
2022-12-03T00:37:50.649Z,7.07
2022-12-03T00:42:58.208Z,6.22
2022-12-03T00:45:33.463Z,7.13
2022-12-03T00:48:07.647Z,7.07
2022-12-03T00:50:41.404Z,7.30
2022-12-03T00:53:15.157Z,6.70
2022-12-03T00:58:24.527Z,5.95
2022-12-03T01:03:33.227Z,6.32
2022-12-03T01:08:40.575Z,6.90
2022-12-03T01:14:01.622Z,7.20
2022-12-03T01:19:15.949Z,8.15
2022-12-03T01:21:51.624Z,7.35
2022-12-03T01:24:25.380Z,7.28
2022-12-03T01:29:32.727Z,6.28
2022-12-03T01:34:56.177Z,7.65
2022-12-03T01:37:30.334Z,6.78
2022-12-03T01:42:41.309Z,8.05
2022-12-03T01:45:24.954Z,8.25
2022-12-03T01:48:00.858Z,7.13
2022-12-03T01:50:35.292Z,7.50
2022-12-03T01:53:12.892Z,7.55
2022-12-03T01:55:49.009Z,7.85
2022-12-03T01:58:27.789Z,6.93
2022-12-03T02:01:05.766Z,7.70
2022-12-03T02:03:41.172Z,7.13
2022-12-03T02:06:17.930Z,7.45
2022-12-03T02:08:58.833Z,7.57
2022-12-03T02:11:36.844Z,8.50
2022-12-03T02:14:13.605Z,7.80
2022-12-03T02:16:47.976Z,8.10
2022-12-03T02:19:27.032Z,7.57
2022-12-03T02:22:06.940Z,7.95
2022-12-03T02:24:45.055Z,7.68
2022-12-03T02:27:20.462Z,7.30
2022-12-03T02:29:54.289Z,8.43
2022-12-03T02:35:01.596Z,8.80
2022-12-03T02:40:13.936Z,8.50
2022-12-03T02:42:51.500Z,6.93
2022-12-03T02:45:29.677Z,8.05
2022-12-03T02:48:07.583Z,8.23
2022-12-03T02:50:43.364Z,8.23
2022-12-03T02:53:20.294Z,7.70
2022-12-03T02:55:55.902Z,7.82
2022-12-03T02:58:34.317Z,8.50
2022-12-03T03:01:09.129Z,7.50
2022-12-03T03:03:43.713Z,8.25
2022-12-03T03:06:19.205Z,7.97
2022-12-03T03:08:53.244Z,7.50
2022-12-03T03:11:27.233Z,8.15
2022-12-03T03:14:03.124Z,8.07
2022-12-03T03:16:37.438Z,7.72
2022-12-03T03:19:11.349Z,8.43
2022-12-03T03:21:46.074Z,7.82
2022-12-03T03:26:54.365Z,8.23
2022-12-03T03:29:29.700Z,8.38
2022-12-03T03:32:04.483Z,7.68
2022-12-03T03:34:38.320Z,8.40
2022-12-03T03:39:45.689Z,8.40
2022-12-03T03:44:54.861Z,7.77
2022-12-03T03:47:29.220Z,7.80
2022-12-03T03:50:03.382Z,8.15
2022-12-03T03:52:38.671Z,8.30
2022-12-03T03:55:13.693Z,8.15
2022-12-03T03:57:47.835Z,7.97
2022-12-03T04:00:24.871Z,8.38
2022-12-03T04:02:58.812Z,7.68
2022-12-03T04:05:32.751Z,8.38
2022-12-03T04:08:06.732Z,7.75
2022-12-03T04:10:57.830Z,8.20
2022-12-03T04:13:31.904Z,7.50
2022-12-03T04:16:07.531Z,8.40
2022-12-03T04:18:44.549Z,7.45
2022-12-03T04:21:37.271Z,6.65
2022-12-03T04:24:12.710Z,8.27
2022-12-03T04:27:04.172Z,8.73
2022-12-03T04:29:38.092Z,8.07
2022-12-03T04:32:30.725Z,7.90
2022-12-03T04:35:22.380Z,7.97
2022-12-03T04:37:56.660Z,8.15
2022-12-03T04:40:48.135Z,8.20
2022-12-03T04:43:22.003Z,8.25
2022-12-03T04:48:31.171Z,8.82
2022-12-03T04:51:05.121Z,9.55
2022-12-03T04:53:45.847Z,8.60
2022-12-03T04:56:20.308Z,9.13
2022-12-03T04:58:54.647Z,9.32
2022-12-03T05:01:28.711Z,8.07
2022-12-03T05:04:04.334Z,9.32
2022-12-03T05:06:38.568Z,10.43
2022-12-03T05:09:13.934Z,9.07
2022-12-03T05:11:47.861Z,8.95
2022-12-03T05:14:21.942Z,8.93
2022-12-03T05:16:56.290Z,9.82
2022-12-03T05:19:45.601Z,9.73
2022-12-03T05:22:19.574Z,9.27
2022-12-03T05:24:53.776Z,8.10
2022-12-03T05:27:27.881Z,9.20
2022-12-03T05:30:02.026Z,9.55
2022-12-03T05:32:35.889Z,10.45
2022-12-03T05:37:44.999Z,10.45
2022-12-03T05:42:54.642Z,10.57
2022-12-03T05:45:30.718Z,11.13
2022-12-03T05:48:06.235Z,10.57
2022-12-03T05:50:43.952Z,9.88
2022-12-03T05:53:20.820Z,10.52
2022-12-03T05:58:28.257Z,11.53
2022-12-03T06:03:35.776Z,10.43
2022-12-03T06:06:11.371Z,11.15
2022-12-03T06:08:45.174Z,11.82
2022-12-03T06:13:52.684Z,11.57
2022-12-03T06:16:26.829Z,11.73
2022-12-03T06:19:01.255Z,12.68
2022-12-03T06:21:37.035Z,13.52
2022-12-03T06:24:11.550Z,12.20
2022-12-03T06:26:47.145Z,13.27
2022-12-03T06:29:21.383Z,13.40
2022-12-03T06:31:55.514Z,14.25
2022-12-03T06:34:29.500Z,14.38
2022-12-03T06:39:38.726Z,14.57
2022-12-03T06:44:46.129Z,13.47
2022-12-03T06:49:53.439Z,14.90
2022-12-03T06:55:02.171Z,14.07
2022-12-03T07:00:10.957Z,14.90
2022-12-03T07:02:45.152Z,13.38
2022-12-03T07:05:20.575Z,14.70
2022-12-03T07:07:55.842Z,13.77
2022-12-03T07:10:29.746Z,13.10
2022-12-03T07:15:37.385Z,14.07
2022-12-03T07:18:11.256Z,13.40
2022-12-03T07:20:45.609Z,14.05
2022-12-03T07:25:54.394Z,12.70
2022-12-03T07:28:28.458Z,13.88
2022-12-03T07:33:36.245Z,12.85
2022-12-03T07:38:46.137Z,11.70
2022-12-03T07:41:19.972Z,13.40
2022-12-03T07:46:27.398Z,11.73
2022-12-03T07:49:01.220Z,12.68
2022-12-03T07:54:10.098Z,11.50
2022-12-03T07:56:43.891Z,11.38
2022-12-03T08:01:51.310Z,11.50
2022-12-03T08:04:25.208Z,11.85
2022-12-03T08:09:33.999Z,10.43
2022-12-03T08:12:16.748Z,11.48
2022-12-03T08:14:51.063Z,10.25
2022-12-03T08:17:26.149Z,10.15
2022-12-03T08:19:59.920Z,11.30
2022-12-03T08:22:34.941Z,10.70
2022-12-03T08:25:18.541Z,10.32
2022-12-03T08:27:55.259Z,11.07
2022-12-03T08:30:29.481Z,11.05
2022-12-03T08:33:07.791Z,12.80
2022-12-03T08:35:50.103Z,10.90
2022-12-03T08:38:26.013Z,10.68
2022-12-03T08:41:01.201Z,10.13
2022-12-03T08:43:42.047Z,9.55
2022-12-03T08:46:20.376Z,8.68
2022-12-03T08:48:54.202Z,9.65
2022-12-03T08:54:08.914Z,10.35
2022-12-03T08:56:45.003Z,9.75
2022-12-03T08:59:31.241Z,9.88
2022-12-03T09:02:15.332Z,10.80
2022-12-03T09:07:22.635Z,11.52
2022-12-03T09:12:31.319Z,10.45
2022-12-03T09:15:05.671Z,9.60
2022-12-03T09:17:39.703Z,11.40
2022-12-03T09:20:13.946Z,10.00
2022-12-03T09:22:48.170Z,10.15
2022-12-03T09:25:22.051Z,9.93
2022-12-03T09:27:57.291Z,11.10
2022-12-03T09:30:31.391Z,9.40
2022-12-03T09:33:08.700Z,9.32
2022-12-03T09:35:42.757Z,9.13
2022-12-03T09:38:17.031Z,8.95
2022-12-03T09:40:51.199Z,9.15
2022-12-03T09:43:43.347Z,24.80
2022-12-03T09:46:24.569Z,22.35
2022-12-03T09:48:58.516Z,27.08
2022-12-03T09:51:35.862Z,24.08
2022-12-03T09:54:11.706Z,21.25
2022-12-03T09:56:45.514Z,19.42
2022-12-03T10:01:55.784Z,17.98
2022-12-03T10:04:30.423Z,18.52
2022-12-03T10:07:04.333Z,18.90
2022-12-03T10:12:14.413Z,17.35
2022-12-03T10:14:49.954Z,16.05
2022-12-03T10:17:23.741Z,14.23
2022-12-03T10:22:37.102Z,15.03
2022-12-03T10:25:14.222Z,14.63
2022-12-03T10:27:58.231Z,15.93
2022-12-03T10:30:33.941Z,15.13
2022-12-03T10:33:18.845Z,16.33
2022-12-03T10:35:53.228Z,15.82
2022-12-03T10:38:27.419Z,17.00
2022-12-03T10:41:20.704Z,15.38
2022-12-03T10:43:54.569Z,16.58
2022-12-03T10:49:11.321Z,17.45
2022-12-03T10:51:45.963Z,16.40
2022-12-03T10:54:23.824Z,14.82
2022-12-03T10:56:58.488Z,15.32
2022-12-03T10:59:35.308Z,15.27
2022-12-03T11:02:15.615Z,15.52
2022-12-03T11:04:49.999Z,14.85
2022-12-03T11:07:24.649Z,14.32
2022-12-03T11:10:00.534Z,13.32
2022-12-03T11:12:35.769Z,12.75
2022-12-03T11:15:17.333Z,12.65
2022-12-03T11:17:54.303Z,12.18
2022-12-03T11:21:11.175Z,13.75
2022-12-03T11:24:16.148Z,12.40
2022-12-03T11:27:19.078Z,13.13
2022-12-03T11:29:58.892Z,11.60
2022-12-03T11:33:21.273Z,11.23
2022-12-03T11:36:15.435Z,10.70
2022-12-03T11:38:58.586Z,10.05
2022-12-03T11:41:34.900Z,11.43
2022-12-03T11:44:31.448Z,11.20
2022-12-03T11:47:16.955Z,11.23
2022-12-03T11:49:53.035Z,11.55
2022-12-03T11:52:31.461Z,9.32
2022-12-03T11:55:15.734Z,10.77
2022-12-03T11:57:49.668Z,10.38
2022-12-03T12:00:25.708Z,10.52
2022-12-03T12:03:00.358Z,10.23
2022-12-03T12:05:36.027Z,10.32
2022-12-03T12:08:20.335Z,11.32
2022-12-03T12:10:54.417Z,10.55
2022-12-03T12:13:56.404Z,10.05
2022-12-03T12:16:51.203Z,11.57
2022-12-03T12:19:41.492Z,12.52
2022-12-03T12:22:19.607Z,12.35
2022-12-03T12:24:54.736Z,12.40
2022-12-03T12:27:53.273Z,11.77
2022-12-03T12:30:27.106Z,13.25
2022-12-03T12:35:37.279Z,12.85
2022-12-03T12:40:51.380Z,18.80
2022-12-03T12:43:27.011Z,18.42
2022-12-03T12:46:38.635Z,19.92
2022-12-03T12:49:01.565Z,17.70
2022-12-03T12:51:35.566Z,18.48
2022-12-03T12:54:14.046Z,17.70
2022-12-03T12:56:50.148Z,16.05
2022-12-03T12:59:24.906Z,15.98
2022-12-03T13:01:59.446Z,16.45
2022-12-03T13:04:39.756Z,15.57
2022-12-03T13:07:13.965Z,16.80
2022-12-03T13:09:54.913Z,15.43
2022-12-03T13:12:29.085Z,14.65
2022-12-03T13:17:36.677Z,15.70
2022-12-03T13:22:50.344Z,14.65
2022-12-03T13:26:00.239Z,14.48
2022-12-03T13:28:31.980Z,14.45
2022-12-03T13:31:24.675Z,14.88
2022-12-03T13:33:59.363Z,14.88
2022-12-03T13:36:40.630Z,13.23
2022-12-03T13:39:21.668Z,13.80
2022-12-03T13:42:15.793Z,14.07
2022-12-03T13:44:51.159Z,13.50
2022-12-03T13:47:25.246Z,14.73
2022-12-03T13:50:03.806Z,14.43
2022-12-03T13:52:37.754Z,13.18
2022-12-03T13:55:16.418Z,13.18
2022-12-03T13:57:51.599Z,13.18
2022-12-03T14:00:25.679Z,12.50
2022-12-03T14:02:59.789Z,12.18
2022-12-03T14:05:33.660Z,13.15
2022-12-03T14:10:41.764Z,14.20
2022-12-03T14:13:17.013Z,13.23
2022-12-03T14:15:50.872Z,13.93
2022-12-03T14:20:58.388Z,13.17
2022-12-03T14:23:32.143Z,13.98
2022-12-03T14:28:40.935Z,12.63
2022-12-03T14:31:15.044Z,12.98
2022-12-03T14:33:48.311Z,12.15
2022-12-03T14:36:21.385Z,12.23
2022-12-03T14:38:54.319Z,13.00
2022-12-03T14:41:44.901Z,10.77
2022-12-03T14:44:21.786Z,11.30
2022-12-03T14:46:57.352Z,12.77
2022-12-03T14:49:30.825Z,11.55
2022-12-03T14:52:09.915Z,12.02
2022-12-03T14:54:46.263Z,11.52
2022-12-03T14:57:19.309Z,11.90
2022-12-03T14:59:53.883Z,12.38
2022-12-03T15:02:27.427Z,12.18
2022-12-03T15:05:00.651Z,12.68
2022-12-03T15:07:35.064Z,12.25
2022-12-03T15:10:09.364Z,11.43
2022-12-03T15:12:42.443Z,12.48
2022-12-03T15:15:17.146Z,12.10
2022-12-03T15:17:50.121Z,11.98
2022-12-03T15:20:24.424Z,11.77
2022-12-03T15:22:57.458Z,13.33
2022-12-03T15:25:30.449Z,13.38
2022-12-03T15:28:05.235Z,11.87
2022-12-03T15:30:39.733Z,13.07
2022-12-03T15:33:12.721Z,14.40
2022-12-03T15:35:45.734Z,12.07
2022-12-03T15:38:19.229Z,12.38
2022-12-03T15:40:52.205Z,13.50
2022-12-03T15:43:25.199Z,14.43
2022-12-03T15:45:59.623Z,12.83
2022-12-03T15:48:35.546Z,12.20
2022-12-03T15:51:08.537Z,12.88
2022-12-03T15:53:41.931Z,10.68
2022-12-03T15:56:14.915Z,12.40
2022-12-03T15:58:47.826Z,12.52
2022-12-03T16:01:22.313Z,10.93
2022-12-03T16:03:55.276Z,11.82
2022-12-03T16:06:28.392Z,12.00
2022-12-03T16:09:01.401Z,12.27
2022-12-03T16:11:34.381Z,12.13
2022-12-03T16:14:07.314Z,13.10
2022-12-03T16:16:42.747Z,12.73
2022-12-03T16:22:25.543Z,11.60
2022-12-03T16:26:19.541Z,12.23
2022-12-03T16:28:55.311Z,12.48
2022-12-03T16:31:29.475Z,13.40
2022-12-03T16:34:03.469Z,13.80
2022-12-03T16:36:37.538Z,12.38
2022-12-03T16:39:12.816Z,11.60
2022-12-03T16:41:48.176Z,12.50
2022-12-03T16:44:32.425Z,11.95
2022-12-03T16:47:06.413Z,11.93
2022-12-03T16:49:40.393Z,11.85
2022-12-03T16:52:14.326Z,13.27
2022-12-03T16:54:48.556Z,12.13
2022-12-03T16:57:26.561Z,10.52
2022-12-03T17:00:05.051Z,12.13
2022-12-03T17:02:39.145Z,11.05
2022-12-03T17:05:14.058Z,11.35
2022-12-03T17:07:48.128Z,11.48
2022-12-03T17:10:22.184Z,13.20
2022-12-03T17:13:13.212Z,12.15
2022-12-03T17:15:47.222Z,11.43
2022-12-03T17:18:22.698Z,12.13
2022-12-03T17:20:56.800Z,12.65
2022-12-03T17:23:31.202Z,12.18
2022-12-03T17:26:05.588Z,12.02
2022-12-03T17:28:41.051Z,12.95
2022-12-03T17:31:15.372Z,15.07
2022-12-03T17:33:49.375Z,12.18
2022-12-03T17:38:57.036Z,14.65
2022-12-03T17:41:31.021Z,14.30
2022-12-03T17:44:10.734Z,15.75
2022-12-03T17:46:46.376Z,16.20
2022-12-03T17:49:20.371Z,18.35
2022-12-03T17:51:54.360Z,19.33
2022-12-03T17:54:43.475Z,18.08
2022-12-03T17:57:22.463Z,22.80
2022-12-03T17:59:57.948Z,22.33
2022-12-03T18:02:31.999Z,21.20
2022-12-03T18:05:06.179Z,22.67
2022-12-03T18:07:40.266Z,20.00
2022-12-03T18:10:14.453Z,22.40
2022-12-03T18:12:48.358Z,23.20
2022-12-03T18:17:57.135Z,19.77
2022-12-03T18:23:05.352Z,20.02
2022-12-03T18:25:39.427Z,25.88
2022-12-03T18:28:13.492Z,22.92
2022-12-03T18:30:52.509Z,22.48
2022-12-03T18:33:27.576Z,21.60
2022-12-03T18:36:01.520Z,23.10
2022-12-03T18:38:35.647Z,21.02
2022-12-03T18:41:09.786Z,21.27
2022-12-03T18:43:43.752Z,19.40
2022-12-03T18:49:14.800Z,19.15
2022-12-03T18:51:50.427Z,17.23
2022-12-03T18:54:26.135Z,19.58
2022-12-03T18:57:00.219Z,17.80
2022-12-03T18:59:34.365Z,18.10
2022-12-03T19:02:26.664Z,16.85
2022-12-03T19:05:08.642Z,16.20
2022-12-03T19:07:43.454Z,16.08
2022-12-03T19:10:17.441Z,15.80
2022-12-03T19:12:51.558Z,15.05
2022-12-03T19:15:25.514Z,15.95
2022-12-03T19:18:00.899Z,15.00
2022-12-03T19:20:35.096Z,15.05
2022-12-03T19:23:09.282Z,13.90
2022-12-03T19:25:43.221Z,13.55
2022-12-03T19:28:17.140Z,13.52
2022-12-03T19:30:58.901Z,13.65
2022-12-03T19:33:35.468Z,13.95
2022-12-03T19:36:19.688Z,13.35
2022-12-03T19:38:57.295Z,13.52
2022-12-03T19:41:31.805Z,13.73
2022-12-03T19:44:10.729Z,13.25
2022-12-03T19:46:45.646Z,12.10
2022-12-03T19:49:22.633Z,12.25
2022-12-03T19:51:56.744Z,13.02
2022-12-03T19:54:30.872Z,12.80
2022-12-03T19:57:04.939Z,12.13
2022-12-03T19:59:39.174Z,12.55
2022-12-03T20:02:13.521Z,12.20
2022-12-03T20:04:49.086Z,11.02
2022-12-03T20:07:23.187Z,11.65
2022-12-03T20:09:57.464Z,11.05
2022-12-03T20:12:31.677Z,11.15
2022-12-03T20:15:06.451Z,12.25
2022-12-03T20:17:40.448Z,11.48
2022-12-03T20:20:15.964Z,11.00
2022-12-03T20:22:50.315Z,11.05
2022-12-03T20:25:24.416Z,10.70
2022-12-03T20:27:59.091Z,12.35
2022-12-03T20:30:33.593Z,12.05
2022-12-03T20:33:07.493Z,11.05
2022-12-03T20:35:42.815Z,10.82
2022-12-03T20:38:16.863Z,10.63
2022-12-03T20:40:51.363Z,12.02
2022-12-03T20:43:25.372Z,11.40
2022-12-03T20:46:06.928Z,9.63
2022-12-03T20:48:41.757Z,11.38
2022-12-03T20:51:20.076Z,10.27
2022-12-03T20:53:54.157Z,10.95
2022-12-03T20:56:31.426Z,10.48
2022-12-03T20:59:07.340Z,10.77
2022-12-03T21:01:42.790Z,10.98
2022-12-03T21:04:18.191Z,9.98
2022-12-03T21:06:53.460Z,10.25
2022-12-03T21:09:27.322Z,10.07
2022-12-03T21:14:35.755Z,11.03
2022-12-03T21:17:09.989Z,10.13
2022-12-03T21:19:43.961Z,10.43
2022-12-03T21:24:52.884Z,10.23
2022-12-03T21:30:00.308Z,9.00
2022-12-03T21:32:34.170Z,10.20
2022-12-03T21:35:08.832Z,10.77
2022-12-03T21:37:44.053Z,9.90
2022-12-03T21:40:17.932Z,9.93
2022-12-03T21:45:26.414Z,9.30
2022-12-03T21:48:00.296Z,10.25
2022-12-03T21:50:34.231Z,10.90
2022-12-03T21:53:09.824Z,10.40
2022-12-03T21:55:43.668Z,9.18
2022-12-03T22:00:51.185Z,9.93
2022-12-03T22:03:25.077Z,9.95
2022-12-03T22:08:33.935Z,9.40
2022-12-03T22:11:09.451Z,10.00
2022-12-03T22:13:43.593Z,8.77
2022-12-03T22:16:18.956Z,11.20
2022-12-03T22:18:53.677Z,8.40
2022-12-03T22:21:27.676Z,9.45
2022-12-03T22:24:03.198Z,9.35
2022-12-03T22:26:37.089Z,9.68
2022-12-03T22:29:12.329Z,9.18
2022-12-03T22:31:46.363Z,8.45
2022-12-03T22:36:54.022Z,8.75
2022-12-03T22:42:02.916Z,8.68
2022-12-03T22:44:36.718Z,8.90
2022-12-03T22:49:44.060Z,9.30
2022-12-03T22:54:52.847Z,9.97
2022-12-03T22:57:26.644Z,9.07
2022-12-03T23:02:34.729Z,10.32
2022-12-03T23:05:08.981Z,9.13
2022-12-03T23:07:42.881Z,8.80
2022-12-03T23:10:18.458Z,9.45
2022-12-03T23:12:52.316Z,8.65
2022-12-03T23:17:59.951Z,9.53
2022-12-03T23:20:33.752Z,9.45
2022-12-03T23:25:42.796Z,8.43
2022-12-03T23:28:16.703Z,9.15
2022-12-03T23:30:50.773Z,8.57
2022-12-03T23:33:25.315Z,8.52
2022-12-03T23:35:59.295Z,8.80
2022-12-03T23:38:33.493Z,9.00
2022-12-03T23:43:44.053Z,8.15
2022-12-03T23:46:22.208Z,8.10
2022-12-03T23:48:58.612Z,8.57
2022-12-03T23:51:32.434Z,8.25
2022-12-03T23:56:41.280Z,8.77
2022-12-03T23:59:15.198Z,8.63
